1NJ1 weather

Rutger's Helistop Sec. A & B Heliport
New Brunswick, New Jersey, United States

Public forecast

Using degrees Fahrenheit for public forecast. Weather courtesy of forecast.io.

Closest aviation weather report (METAR) to Rutger's Helistop Sec. A & B Heliport

Closest report is Linden Airport, 12.0 nm (22.2 km) NE. Retrieved 2020/07/09 18:35 UTC (2 minutes ago):

KLDJ 091835Z AUTO 15008KT 10SM CLR 31/20 A2999 RMK AO2 T03070204

Closest aviation forecast (TAF) to Rutger's Helistop Sec. A & B Heliport

Closest forecast is Newark Liberty International Airport, 17.6 nm (32.7 km) NE. Retrieved 2020/07/09 18:30 UTC (7 minutes ago):

TAF KEWR 091729Z 0918/1024 19007KT P6SM SCT035 FM100100 09005KT P6SM SCT025 SCT250 FM100500 08005KT P6SM SCT025 BKN040 FM100700 08006KT P6SM VCSH BKN025 FM100900 07006KT 5SM -RA BR OVC015 FM101300 07011G17KT 5SM -RA BR OVC009 PROB30 1014/1018 12018G32KT 1SM +TSRA BKN007CB